Hovedside
METAR-TAF:

METAR-TAF

Lufthavner :

El Hierro lufthavn

El Hierro, Spania

breddegrad: 27-49N, lengdegrad: 017-53W, høyde over havet: 32 m

Gjeldene værobservasjon

Denne rapporten ble laget for 21 minutter siden, klokken 04:30 UTC
Vind 14 kt fra Nord
Temperatur 21°C
Luftfuktighet 83%
Trykk 1016 hPa
Sikt 10 km eller mer
Brutte skyer i en høyde av 1600 ft
Brutte skyer i en høyde av 2500 ft
Brutte skyer i en høyde av 3100 ft

METAR: GCHI 190430Z AUTO 35014KT 9999 BKN016 BKN025 BKN031 21/18 Q1016

Tid: 05:51 (04:51 UTC)

Varsel

Denne rapporten ble laget for 2 timer og 51 minutter siden, klokken 02:00 UTC
Varsel gyldig fra 19. klokken 03 UTC til 20. klokken 03 UTC
Vind 9 kt fra Nord
Sikt 10 km eller mer
Få skyer i en høyde av 2500 ft

TAF: GCHI 190200Z 1903/2003 36009KT 9999 FEW025 TX24/1914Z TN20/1906Z

Værobservasjoner og værvarsel for over 4000 flyplasser (METAR- og TAF-rapporter).

Tilgjengelige stasjoner er representert av de røde og gule prikkene på kartet.

Hold musepekeren over prikken for å se navnet på stasjonen.

Klikk så for å se værobservasjoner og -varsler.

For å forandre kartet kan du klikke på den grønne knappen med svart kryss for å zoome inn, på den grønne knappen med strek for å zoome ut, eller på de grønne pilene for å se tilstøtende kart.


METAR-TAF: